Stuart, IA

8:01 PM CDT on October 24, 2014 (GMT -0500)
Des Moines International | Change Station
CLOSE
Current Station
Airport
Location: Des Moines,
Elevation: 965 ft
Nearby Weather Stations

Elev 965 ft 41.53 °N, 93.66 °W | Updated 7 minutes ago

Clear
Clear
60 °F
Feels Like 60 °F
N
7
Wind Variable Wind from South

Today
High -- | Low -- °F
--% Chance of Precip.
Yesterday
High -- | Low -- °F
Precip. -- in
7:39 AM 6:22 PM
New Moon, 1% visible
Pressure 29.93 in
Visibility 4.0 miles
Clouds Mostly Cloudy 25000 ft
Dew Point 58 °F
Humidity 93%
Rainfall 0.00 in
Snow Depth Not available.
UV 0 out of 12
Pollen 2.20 out of 12
Air Quality Not available.
Flu Activity Sporadic
METAR KDSM 250054Z 17006KT 4SM BR BKN250 16/14 A2993 RMK AO2 SLP134 T01560144

More Conditions Fewer Conditions

Pressure 29.93 in
Visibility 4.0 miles
Clouds Mostly Cloudy 25000 ft
Dew Point 58 °F
Humidity 93%
Rainfall 0.00 in
Snow Depth Not available.
UV 0 out of 12
Pollen 2.20 out of 12
Air Quality Not available.
Flu Activity Sporadic
METAR KDSM 250054Z 17006KT 4SM BR BKN250 16/14 A2993 RMK AO2 SLP134 T01560144

More Conditions Fewer Conditions

10-Day Weather Forecast

Almanac

Astronomy

Oct. 24, 2014 Rise Set
Actual Time 7:39 AM CDT 6:22 PM CDT
Civil Twilight 7:11 AM CDT 6:51 PM CDT
Nautical Twilight 6:38 AM CDT 7:23 PM CDT
Astronomical Twilight 6:06 AM CDT 7:55 PM CDT
Moon 8:19 AM CDT (10/24) 7:02 PM CDT (10/24)
Length of Visible Light 11h 39m
Length of Day
10h 43m
Tomorrow will be 2m 34s shorter.
New Moon, 1% of the Moon is Illuminated
Today
New Moon
Oct 30
First Quarter
Nov 6
Full
Nov 14
Last Quarter
Nov 22
New

Today's Extremes

State Highs State Lows

Community

WunderPhotos

Upload Photos

1,764,737 photos uploaded!

WunderBlogs® & News

Nearby

Snow Depth

Station Depth Elevation
No new snow has been reported.

Earthquake Activity

City Distance Mag. Time & Date
No recent earthquake activity has been reported nearby.
Minimum magnitude displayed is 2.5.

Coastal Water Temperatures

Place Temperature
No Stations Reporting

Nearby Weather Stations